Florinea, Brazil
Current Conditions -  °F | °C
As of 10:00 AM on Friday 21 Nov 2014 (Local Time) from SBLO Reporting Station
Broken Clouds Broken Clouds  
Wind Chill: 73°   Ceiling: 900
Heat Index: 73°   Visibility: 6mi
Dew Point: 70°   Wind: 6mph
Humidity: 88%   Direction: 80°E
Pressure: 30.03"   Gusts: NA
Location:  22.9°S, 50.73°W
Report Text: SBLO 211200Z 08005KT 9000 BKN009 BKN100 23/21 Q1017
Loading
Personal Weather Stations






























Interactive Weather Map New forecast layout! Learn more

10-Day Weather Forecast

Advertisements
Track Severe Weather on mobile